createdAt,value
2022-09-27T00:00:32.176Z,1.80
2022-09-27T00:03:02.176Z,1.60
2022-09-27T00:05:30.456Z,1.50
2022-09-27T00:07:58.715Z,1.50
2022-09-27T00:10:26.981Z,1.60
2022-09-27T00:12:55.470Z,1.80
2022-09-27T00:15:23.810Z,1.80
2022-09-27T00:17:52.298Z,1.73
2022-09-27T00:20:23.219Z,2.03
2022-09-27T00:22:51.806Z,3.40
2022-09-27T00:25:20.059Z,1.73
2022-09-27T00:27:48.373Z,1.70
2022-09-27T00:30:16.782Z,1.50
2022-09-27T00:32:45.039Z,2.03
2022-09-27T00:35:13.813Z,1.50
2022-09-27T00:37:43.441Z,1.70
2022-09-27T00:40:15.024Z,1.77
2022-09-27T00:42:45.731Z,1.40
2022-09-27T00:45:16.399Z,1.90
2022-09-27T00:47:49.680Z,1.50
2022-09-27T00:50:27.661Z,2.07
2022-09-27T00:53:09.909Z,1.47
2022-09-27T00:55:41.000Z,1.80
2022-09-27T00:58:09.315Z,1.90
2022-09-27T01:00:38.615Z,1.33
2022-09-27T01:03:06.940Z,1.57
2022-09-27T01:05:35.391Z,1.77
2022-09-27T01:08:05.539Z,1.63
2022-09-27T01:10:38.842Z,1.53
2022-09-27T01:13:14.551Z,1.40
2022-09-27T01:15:48.638Z,1.20
2022-09-27T01:18:25.596Z,1.53
2022-09-27T01:21:48.512Z,1.40
2022-09-27T01:24:56.545Z,1.33
2022-09-27T01:28:13.610Z,1.90
2022-09-27T01:30:48.641Z,1.70
2022-09-27T01:33:27.203Z,1.60
2022-09-27T01:36:09.485Z,1.40
2022-09-27T01:38:52.621Z,1.10
2022-09-27T01:41:29.201Z,1.40
2022-09-27T01:44:00.426Z,1.33
2022-09-27T01:46:32.965Z,1.23
2022-09-27T01:49:01.600Z,1.50
2022-09-27T01:51:31.678Z,1.60
2022-09-27T01:54:02.687Z,1.40
2022-09-27T01:56:34.591Z,1.97
2022-09-27T01:59:07.844Z,1.40
2022-09-27T02:01:37.764Z,1.17
2022-09-27T02:04:06.342Z,1.57
2022-09-27T02:06:36.844Z,1.47
2022-09-27T02:09:07.694Z,1.80
2022-09-27T02:11:36.087Z,1.20
2022-09-27T02:14:06.341Z,1.00
2022-09-27T02:16:40.781Z,1.23
2022-09-27T02:19:12.137Z,1.30
2022-09-27T02:21:45.069Z,1.60
2022-09-27T02:24:16.253Z,1.20
2022-09-27T02:26:45.950Z,1.30
2022-09-27T02:29:17.018Z,1.10
2022-09-27T02:31:46.745Z,1.83
2022-09-27T02:34:17.979Z,1.30
2022-09-27T02:36:46.185Z,1.20
2022-09-27T02:39:14.518Z,1.20
2022-09-27T02:41:42.867Z,1.40
2022-09-27T02:44:12.753Z,1.40
2022-09-27T02:47:07.665Z,1.40
2022-09-27T02:49:47.561Z,1.30
2022-09-27T02:52:21.875Z,1.10
2022-09-27T02:54:55.675Z,1.20
2022-09-27T02:57:31.749Z,1.77
2022-09-27T03:00:05.274Z,1.27
2022-09-27T03:02:38.439Z,1.40
2022-09-27T03:05:08.324Z,1.40
2022-09-27T03:07:38.533Z,1.30
2022-09-27T03:10:08.507Z,1.60
2022-09-27T03:12:36.732Z,1.20
2022-09-27T03:15:06.474Z,1.50
2022-09-27T03:17:36.274Z,1.40
2022-09-27T03:20:05.088Z,2.20
2022-09-27T03:22:33.463Z,1.57
2022-09-27T03:25:01.750Z,1.90
2022-09-27T03:27:30.061Z,1.80
2022-09-27T03:29:59.566Z,1.40
2022-09-27T03:32:28.286Z,1.80
2022-09-27T03:34:57.929Z,1.93
2022-09-27T03:37:27.086Z,1.60
2022-09-27T03:39:55.386Z,1.70
2022-09-27T03:42:23.642Z,1.40
2022-09-27T03:44:52.360Z,1.47
2022-09-27T03:47:20.745Z,1.93
2022-09-27T03:49:49.106Z,1.60
2022-09-27T03:52:19.034Z,1.80
2022-09-27T03:54:48.071Z,2.00
2022-09-27T03:57:16.373Z,1.53
2022-09-27T03:59:44.644Z,1.70
2022-09-27T04:02:12.986Z,2.27
2022-09-27T04:04:41.407Z,2.03
2022-09-27T04:07:10.144Z,1.70
2022-09-27T04:09:44.738Z,1.50
2022-09-27T04:12:13.441Z,1.80
2022-09-27T04:14:41.753Z,2.10
2022-09-27T04:17:10.110Z,1.80
2022-09-27T04:19:38.418Z,1.90
2022-09-27T04:22:06.728Z,1.73
2022-09-27T04:24:35.083Z,1.83
2022-09-27T04:27:04.789Z,1.70
2022-09-27T04:29:33.150Z,1.90
2022-09-27T04:32:01.784Z,2.07
2022-09-27T04:34:46.049Z,1.73
2022-09-27T04:37:14.676Z,2.23
2022-09-27T04:39:42.964Z,2.00
2022-09-27T04:42:12.645Z,1.87
2022-09-27T04:44:40.945Z,2.60
2022-09-27T04:47:09.248Z,2.37
2022-09-27T04:49:38.638Z,2.00
2022-09-27T04:52:07.107Z,2.00
2022-09-27T04:54:35.487Z,2.03
2022-09-27T04:57:03.773Z,2.10
2022-09-27T04:59:33.473Z,2.27
2022-09-27T05:02:01.761Z,2.00
2022-09-27T05:04:30.036Z,1.80
2022-09-27T05:06:58.405Z,2.13
2022-09-27T05:09:26.727Z,1.63
2022-09-27T05:11:55.105Z,1.90
2022-09-27T05:14:23.531Z,2.27
2022-09-27T05:16:54.130Z,1.60
2022-09-27T05:19:22.517Z,2.00
2022-09-27T05:21:51.448Z,2.03
2022-09-27T05:24:21.414Z,1.80
2022-09-27T05:26:50.088Z,2.33
2022-09-27T05:29:18.782Z,2.10
2022-09-27T05:31:47.460Z,1.83
2022-09-27T05:34:20.236Z,1.67
2022-09-27T05:36:48.764Z,1.60
2022-09-27T05:39:17.639Z,1.43
2022-09-27T05:41:46.111Z,1.50
2022-09-27T05:44:14.567Z,1.60
2022-09-27T05:46:43.010Z,1.93
2022-09-27T05:49:11.241Z,1.13
2022-09-27T05:51:41.285Z,1.73
2022-09-27T05:54:09.588Z,1.70
2022-09-27T05:56:37.912Z,2.40
2022-09-27T05:59:06.248Z,2.13
2022-09-27T06:01:35.672Z,2.10
2022-09-27T06:04:04.836Z,2.40
2022-09-27T06:06:34.347Z,2.50
2022-09-27T06:09:04.040Z,2.17
2022-09-27T06:11:32.307Z,2.10
2022-09-27T06:14:00.565Z,2.23
2022-09-27T06:16:29.051Z,1.90
2022-09-27T06:18:57.964Z,1.87
2022-09-27T06:21:26.423Z,2.90
2022-09-27T06:23:55.563Z,2.40
2022-09-27T06:26:27.039Z,2.60
2022-09-27T06:28:55.735Z,3.10
2022-09-27T06:31:24.020Z,2.87
2022-09-27T06:33:52.415Z,2.57
2022-09-27T06:36:20.878Z,2.43
2022-09-27T06:38:49.836Z,2.67
2022-09-27T06:41:18.134Z,2.73
2022-09-27T06:43:49.484Z,2.10
2022-09-27T06:46:17.804Z,2.50
2022-09-27T06:48:46.123Z,2.37
2022-09-27T06:51:14.422Z,2.40
2022-09-27T06:53:42.696Z,2.50
2022-09-27T06:56:11.040Z,1.90
2022-09-27T06:58:56.887Z,2.17
2022-09-27T07:01:30.599Z,2.57
2022-09-27T07:03:59.019Z,2.70
2022-09-27T07:06:27.345Z,2.37
2022-09-27T07:08:55.613Z,2.50
2022-09-27T07:11:26.185Z,2.60
2022-09-27T07:13:56.528Z,2.90
2022-09-27T07:16:24.847Z,2.40
2022-09-27T07:18:54.553Z,3.00
2022-09-27T07:21:22.835Z,2.10
2022-09-27T07:23:51.219Z,2.40
2022-09-27T07:26:19.554Z,2.77
2022-09-27T07:28:47.916Z,2.80
2022-09-27T07:31:17.147Z,2.27
2022-09-27T07:33:45.611Z,2.30
2022-09-27T07:36:15.967Z,2.17
2022-09-27T07:38:44.307Z,3.17
2022-09-27T07:41:14.755Z,3.30
2022-09-27T07:43:44.561Z,2.30
2022-09-27T07:46:13.730Z,2.40
2022-09-27T07:48:42.255Z,2.37
2022-09-27T07:51:12.005Z,2.80
2022-09-27T07:53:41.800Z,2.10
2022-09-27T07:56:10.123Z,2.70
2022-09-27T07:58:38.440Z,2.30
2022-09-27T08:01:07.295Z,2.10
2022-09-27T08:03:36.248Z,2.50
2022-09-27T08:06:05.238Z,2.77
2022-09-27T08:08:33.509Z,1.90
2022-09-27T08:11:03.245Z,2.67
2022-09-27T08:13:31.626Z,2.30
2022-09-27T08:16:03.931Z,2.60
2022-09-27T08:18:32.283Z,2.50
2022-09-27T08:21:00.858Z,2.87
2022-09-27T08:23:29.273Z,3.07
2022-09-27T08:25:58.599Z,2.60
2022-09-27T08:28:28.378Z,2.50
2022-09-27T08:30:59.239Z,2.70
2022-09-27T08:33:31.926Z,2.90
2022-09-27T08:36:01.822Z,2.90
2022-09-27T08:38:30.096Z,2.67
2022-09-27T08:41:00.315Z,2.97
2022-09-27T08:43:37.532Z,2.80
2022-09-27T08:46:21.800Z,2.80
2022-09-27T08:48:54.625Z,2.40
2022-09-27T08:51:30.991Z,2.80
2022-09-27T08:54:02.346Z,2.30
2022-09-27T08:56:30.581Z,2.33
2022-09-27T08:59:05.734Z,2.40
2022-09-27T09:01:34.035Z,2.57
2022-09-27T09:04:04.286Z,2.13
2022-09-27T09:06:37.456Z,2.13
2022-09-27T09:09:17.185Z,1.83
2022-09-27T09:12:10.035Z,1.90
2022-09-27T09:15:04.442Z,2.27
2022-09-27T09:17:45.817Z,1.97
2022-09-27T09:20:23.719Z,1.70
2022-09-27T09:23:06.643Z,2.00
2022-09-27T09:25:39.661Z,2.00
2022-09-27T09:28:22.060Z,2.70
2022-09-27T09:30:57.495Z,1.50
2022-09-27T09:33:28.153Z,2.00
2022-09-27T09:36:00.341Z,2.30
2022-09-27T09:38:35.679Z,1.73
2022-09-27T09:41:07.996Z,1.77
2022-09-27T09:43:39.734Z,1.70
2022-09-27T09:46:14.170Z,1.83
2022-09-27T09:48:45.891Z,1.50
2022-09-27T09:51:19.489Z,1.53
2022-09-27T09:53:52.832Z,1.60
2022-09-27T09:56:24.751Z,1.50
2022-09-27T09:58:56.649Z,2.00
2022-09-27T10:01:29.024Z,1.53
2022-09-27T10:03:57.359Z,1.87
2022-09-27T10:06:26.293Z,2.20
2022-09-27T10:08:55.709Z,1.70
2022-09-27T10:11:26.448Z,1.70
2022-09-27T10:13:55.787Z,2.00
2022-09-27T10:16:27.135Z,1.60
2022-09-27T10:18:59.159Z,1.23
2022-09-27T10:21:29.926Z,1.40
2022-09-27T10:24:10.447Z,1.40
2022-09-27T10:26:43.581Z,1.43
2022-09-27T10:29:25.664Z,1.63
2022-09-27T10:31:55.283Z,1.37
2022-09-27T10:34:29.821Z,1.77
2022-09-27T10:37:07.789Z,1.10
2022-09-27T10:39:37.331Z,1.57
2022-09-27T10:42:23.408Z,1.37
2022-09-27T10:44:52.329Z,1.50
2022-09-27T10:47:23.967Z,1.23
2022-09-27T10:49:52.975Z,1.50
2022-09-27T10:52:22.516Z,1.50
2022-09-27T10:54:57.755Z,1.30
2022-09-27T10:57:27.189Z,1.40
2022-09-27T10:59:57.824Z,1.00
2022-09-27T11:02:30.614Z,1.73
2022-09-27T11:05:15.378Z,1.30
2022-09-27T11:07:50.549Z,1.30
2022-09-27T11:10:31.136Z,1.37
2022-09-27T11:13:14.325Z,1.20
2022-09-27T11:15:58.694Z,1.40
2022-09-27T11:18:33.173Z,1.53
2022-09-27T11:21:07.505Z,1.10
2022-09-27T11:23:59.161Z,1.30
2022-09-27T11:26:40.724Z,1.33
2022-09-27T11:29:22.115Z,1.23
2022-09-27T11:32:20.437Z,1.60
2022-09-27T11:35:09.741Z,1.37
2022-09-27T11:37:44.843Z,1.20
2022-09-27T11:40:24.889Z,1.83
2022-09-27T11:43:21.332Z,1.20
2022-09-27T11:46:15.348Z,1.57
2022-09-27T11:49:28.620Z,1.60
2022-09-27T11:52:20.584Z,1.43
2022-09-27T11:55:05.767Z,1.23
2022-09-27T11:57:36.579Z,0.90
2022-09-27T12:00:20.004Z,0.80
2022-09-27T12:03:37.864Z,0.57
2022-09-27T12:06:10.202Z,0.70
2022-09-27T12:08:50.408Z,0.70
2022-09-27T12:11:22.493Z,0.90
2022-09-27T12:13:53.554Z,1.17
2022-09-27T12:16:21.816Z,0.70
2022-09-27T12:18:51.625Z,0.70
2022-09-27T12:21:19.995Z,0.60
2022-09-27T12:23:50.835Z,0.90
2022-09-27T12:26:21.277Z,0.80
2022-09-27T12:28:52.190Z,0.90
2022-09-27T12:31:29.710Z,1.10
2022-09-27T12:34:05.924Z,0.90
2022-09-27T12:36:38.757Z,1.60
2022-09-27T12:39:13.446Z,1.40
2022-09-27T12:41:44.012Z,1.30
2022-09-27T12:44:12.477Z,1.00
2022-09-27T12:46:50.562Z,1.40
2022-09-27T12:49:22.721Z,0.97
2022-09-27T12:51:53.374Z,1.20
2022-09-27T12:54:55.630Z,1.30
2022-09-27T12:57:34.402Z,1.43
2022-09-27T13:00:10.314Z,1.10
2022-09-27T13:03:18.168Z,1.27
2022-09-27T13:06:42.289Z,1.93
2022-09-27T13:09:46.429Z,1.00
2022-09-27T13:12:16.262Z,0.90
2022-09-27T13:14:58.703Z,0.93
2022-09-27T13:17:56.307Z,1.03
2022-09-27T13:20:46.425Z,1.07
2022-09-27T13:24:03.729Z,0.80
2022-09-27T13:27:01.601Z,0.70
2022-09-27T13:29:33.231Z,1.00
2022-09-27T13:32:27.202Z,1.23
2022-09-27T13:34:56.648Z,1.17
2022-09-27T13:37:48.159Z,1.27
2022-09-27T13:40:28.663Z,1.17
2022-09-27T13:43:29.735Z,1.27
2022-09-27T13:45:59.096Z,1.17
2022-09-27T13:48:31.774Z,0.93
2022-09-27T13:51:03.595Z,1.20
2022-09-27T13:53:34.652Z,1.07
2022-09-27T13:56:03.145Z,1.23
2022-09-27T13:58:52.365Z,1.13
2022-09-27T14:01:28.488Z,0.90
2022-09-27T14:03:58.738Z,1.10
2022-09-27T14:06:30.106Z,1.17
2022-09-27T14:08:59.643Z,1.00
2022-09-27T14:11:31.563Z,1.17
2022-09-27T14:14:02.168Z,1.10
2022-09-27T14:16:34.088Z,1.40
2022-09-27T14:19:02.599Z,0.97
2022-09-27T14:21:33.351Z,1.40
2022-09-27T14:24:31.407Z,1.00
2022-09-27T14:27:15.835Z,1.07
2022-09-27T14:29:48.423Z,1.00
2022-09-27T14:32:18.044Z,1.17
2022-09-27T14:34:46.314Z,1.20
2022-09-27T14:37:26.364Z,1.13
2022-09-27T14:39:57.085Z,1.10
2022-09-27T14:42:26.706Z,1.00
2022-09-27T14:44:58.466Z,1.03
2022-09-27T14:47:27.849Z,0.97
2022-09-27T14:49:57.466Z,1.13
2022-09-27T14:52:28.887Z,1.33
2022-09-27T14:55:02.400Z,1.10
2022-09-27T14:57:32.829Z,1.10
2022-09-27T15:00:05.428Z,1.40
2022-09-27T15:02:34.025Z,1.63
2022-09-27T15:05:02.433Z,1.67
2022-09-27T15:07:31.234Z,2.37
2022-09-27T15:09:59.534Z,1.70
2022-09-27T15:12:27.674Z,1.50
2022-09-27T15:14:58.217Z,1.80
2022-09-27T15:17:29.004Z,1.90
2022-09-27T15:20:02.217Z,1.40
2022-09-27T15:22:36.968Z,1.87
2022-09-27T15:25:19.585Z,2.00
2022-09-27T15:27:53.135Z,1.37
2022-09-27T15:30:29.631Z,2.03
2022-09-27T15:33:00.054Z,2.00
2022-09-27T15:35:30.886Z,2.00
2022-09-27T15:38:13.615Z,1.90
2022-09-27T15:41:09.584Z,1.87
2022-09-27T15:43:41.185Z,2.30
2022-09-27T15:46:38.367Z,2.13
2022-09-27T15:49:23.764Z,2.90
2022-09-27T15:51:52.593Z,2.80
2022-09-27T15:54:21.455Z,2.90
2022-09-27T15:56:54.485Z,2.67
2022-09-27T15:59:25.703Z,3.37
2022-09-27T16:01:57.074Z,2.67
2022-09-27T16:04:26.881Z,2.10
2022-09-27T16:06:55.167Z,2.20
2022-09-27T16:09:23.380Z,2.13
2022-09-27T16:11:52.034Z,2.77
2022-09-27T16:14:20.286Z,2.20
2022-09-27T16:16:50.892Z,2.27
2022-09-27T16:19:19.107Z,2.30
2022-09-27T16:21:49.056Z,2.13
2022-09-27T16:24:18.225Z,2.53
2022-09-27T16:26:46.497Z,2.77
2022-09-27T16:29:15.985Z,3.10
2022-09-27T16:31:45.249Z,2.17
2022-09-27T16:34:13.659Z,2.45
2022-09-27T16:36:42.019Z,2.70
2022-09-27T16:39:13.894Z,2.43
2022-09-27T16:41:43.452Z,2.70
2022-09-27T16:44:13.110Z,3.00
2022-09-27T16:46:42.166Z,6.60
2022-09-27T16:49:30.517Z,4.70
2022-09-27T16:52:00.863Z,10.50
2022-09-27T16:54:30.553Z,5.23
2022-09-27T16:56:59.402Z,3.00
2022-09-27T16:59:27.733Z,3.00
2022-09-27T17:01:57.229Z,3.40
2022-09-27T17:04:25.649Z,2.60
2022-09-27T17:06:53.848Z,2.40
2022-09-27T17:09:22.607Z,3.10
2022-09-27T17:11:52.195Z,2.57
2022-09-27T17:14:20.589Z,2.97
2022-09-27T17:16:49.284Z,2.27
2022-09-27T17:19:18.304Z,2.40
2022-09-27T17:21:46.858Z,3.00
2022-09-27T17:24:15.163Z,2.40
2022-09-27T17:26:43.634Z,2.90
2022-09-27T17:29:13.529Z,3.10
2022-09-27T17:31:42.403Z,3.30
2022-09-27T17:34:12.243Z,2.60
2022-09-27T17:36:42.292Z,2.43
2022-09-27T17:39:11.881Z,2.37
2022-09-27T17:41:40.651Z,2.23
2022-09-27T17:44:08.878Z,2.00
2022-09-27T17:46:38.678Z,2.90
2022-09-27T17:49:24.541Z,2.50
2022-09-27T17:51:54.114Z,2.87
2022-09-27T17:54:24.189Z,3.17
2022-09-27T17:56:52.718Z,2.57
2022-09-27T17:59:20.845Z,2.83
2022-09-27T18:01:50.536Z,2.40
2022-09-27T18:04:19.668Z,3.13
2022-09-27T18:06:48.138Z,3.47
2022-09-27T18:09:17.920Z,3.10
2022-09-27T18:11:46.201Z,4.27
2022-09-27T18:14:14.490Z,2.93
2022-09-27T18:16:43.902Z,3.57
2022-09-27T18:19:15.447Z,3.40
2022-09-27T18:21:43.809Z,3.23
2022-09-27T18:24:14.261Z,2.67
2022-09-27T18:26:43.742Z,3.27
2022-09-27T18:29:13.249Z,4.00
2022-09-27T18:31:47.983Z,2.83
2022-09-27T18:34:18.876Z,5.90
2022-09-27T18:36:47.302Z,4.63
2022-09-27T18:39:18.918Z,2.50
2022-09-27T18:41:48.584Z,2.70
2022-09-27T18:44:17.079Z,2.50
2022-09-27T18:46:45.394Z,2.80
2022-09-27T18:49:14.807Z,2.27
2022-09-27T18:51:46.923Z,2.10
2022-09-27T18:54:17.314Z,2.50
2022-09-27T18:56:45.719Z,2.47
2022-09-27T18:59:13.980Z,2.13
2022-09-27T19:01:45.390Z,1.70
2022-09-27T19:04:16.004Z,1.90
2022-09-27T19:06:47.181Z,2.00
2022-09-27T19:09:15.469Z,1.93
2022-09-27T19:11:43.682Z,1.80
2022-09-27T19:14:16.023Z,1.80
2022-09-27T19:16:44.923Z,2.10
2022-09-27T19:19:13.126Z,2.10
2022-09-27T19:21:41.374Z,2.13
2022-09-27T19:24:11.792Z,2.13
2022-09-27T19:26:40.040Z,1.90
2022-09-27T19:29:08.209Z,1.90
2022-09-27T19:31:36.688Z,2.40
2022-09-27T19:34:04.972Z,1.87
2022-09-27T19:36:33.148Z,1.73
2022-09-27T19:39:02.359Z,1.77
2022-09-27T19:41:31.989Z,1.90
2022-09-27T19:44:00.206Z,2.10
2022-09-27T19:46:28.556Z,1.73
2022-09-27T19:48:57.031Z,1.40
2022-09-27T19:51:26.196Z,1.20
2022-09-27T19:53:54.533Z,1.40
2022-09-27T19:56:22.972Z,1.30
2022-09-27T19:58:52.487Z,1.43
2022-09-27T20:01:22.107Z,1.10
2022-09-27T20:03:51.560Z,1.60
2022-09-27T20:06:21.641Z,1.13
2022-09-27T20:08:49.903Z,1.27
2022-09-27T20:11:18.946Z,1.33
2022-09-27T20:13:47.328Z,1.10
2022-09-27T20:16:17.865Z,1.20
2022-09-27T20:18:47.906Z,0.90
2022-09-27T20:21:16.403Z,1.00
2022-09-27T20:23:44.652Z,1.20
2022-09-27T20:26:14.364Z,1.20
2022-09-27T20:28:43.281Z,1.13
2022-09-27T20:31:12.223Z,1.17
2022-09-27T20:33:46.558Z,1.40
2022-09-27T20:36:15.738Z,1.50
2022-09-27T20:38:44.811Z,1.20
2022-09-27T20:41:14.261Z,1.47
2022-09-27T20:43:42.360Z,1.10
2022-09-27T20:46:12.932Z,1.30
2022-09-27T20:48:42.598Z,1.10
2022-09-27T20:51:14.253Z,1.17
2022-09-27T20:53:42.731Z,1.20
2022-09-27T20:56:17.232Z,1.50
2022-09-27T20:58:45.402Z,1.57
2022-09-27T21:01:13.622Z,1.80
2022-09-27T21:03:43.147Z,1.70
2022-09-27T21:06:12.889Z,1.90
2022-09-27T21:08:41.479Z,1.67
2022-09-27T21:11:11.443Z,1.83
2022-09-27T21:13:40.197Z,1.50
2022-09-27T21:16:09.707Z,1.50
2022-09-27T21:18:37.926Z,1.27
2022-09-27T21:21:09.137Z,1.60
2022-09-27T21:23:42.025Z,1.40
2022-09-27T21:26:13.786Z,1.13
2022-09-27T21:28:42.945Z,1.27
2022-09-27T21:31:12.273Z,1.33
2022-09-27T21:33:40.559Z,1.27
2022-09-27T21:36:12.422Z,1.43
2022-09-27T21:38:40.773Z,1.10
2022-09-27T21:41:11.121Z,1.47
2022-09-27T21:43:40.388Z,1.23
2022-09-27T21:46:10.287Z,1.80
2022-09-27T21:48:39.929Z,1.47
2022-09-27T21:51:10.925Z,1.50
2022-09-27T21:53:40.865Z,2.03
2022-09-27T21:56:09.520Z,1.00
2022-09-27T21:58:39.130Z,1.50
2022-09-27T22:01:09.975Z,1.33
2022-09-27T22:03:38.642Z,1.80
2022-09-27T22:06:07.180Z,1.23
2022-09-27T22:08:36.671Z,1.23
2022-09-27T22:11:05.025Z,1.53
2022-09-27T22:13:33.401Z,1.60
2022-09-27T22:16:04.967Z,1.40
2022-09-27T22:18:35.194Z,1.87
2022-09-27T22:21:04.348Z,1.60
2022-09-27T22:23:32.821Z,2.13
2022-09-27T22:26:11.243Z,1.83
2022-09-27T22:28:40.294Z,1.77
2022-09-27T22:31:09.840Z,1.93
2022-09-27T22:33:38.209Z,2.67
2022-09-27T22:36:06.966Z,2.60
2022-09-27T22:38:35.230Z,2.30
2022-09-27T22:41:05.099Z,2.53
2022-09-27T22:43:33.331Z,3.30
2022-09-27T22:46:01.538Z,2.60
2022-09-27T22:48:30.749Z,2.93
2022-09-27T22:50:59.146Z,2.87
2022-09-27T22:53:27.531Z,2.67
2022-09-27T22:56:03.814Z,2.70
2022-09-27T22:58:34.053Z,3.10
2022-09-27T23:01:08.903Z,3.07
2022-09-27T23:03:37.181Z,2.50
2022-09-27T23:06:07.280Z,3.20
2022-09-27T23:08:36.214Z,3.03
2022-09-27T23:11:06.136Z,2.97
2022-09-27T23:13:37.231Z,2.10
2022-09-27T23:16:07.094Z,2.40
2022-09-27T23:18:35.412Z,2.90
2022-09-27T23:21:06.960Z,2.33
2022-09-27T23:23:35.329Z,2.73
2022-09-27T23:26:04.958Z,2.50
2022-09-27T23:28:35.181Z,2.50
2022-09-27T23:31:08.373Z,2.87
2022-09-27T23:33:37.030Z,2.37
2022-09-27T23:36:05.437Z,2.97
2022-09-27T23:38:33.783Z,2.60
2022-09-27T23:41:02.296Z,2.30
2022-09-27T23:43:30.521Z,2.43
2022-09-27T23:46:00.031Z,2.20
2022-09-27T23:48:28.286Z,2.10
2022-09-27T23:50:56.814Z,2.50
2022-09-27T23:53:25.201Z,2.10
2022-09-27T23:56:02.267Z,2.87
2022-09-27T23:58:33.337Z,2.60
